Time;durP1;ratioP1;P1;durP2;ratioP2;P2;SDS_P1;SDS_P2;PMS_P1;PMS_P2;Temp;Humidity;BMP_temperature;BMP_pressure;BME280_temperature;BME280_humidity;BME280_pressure;Samples;Min_cycle;Max_cycle;Signal;HPM_P1;HPM_P2
2021/11/04 00:01:47;;;;;;;0.20;0.20;;;;;;;;;;5096215;28;20117;-81
2021/11/04 00:04:12;;;;;;;0.10;0.10;;;;;;;;;;5096316;28;20032;-81
2021/11/04 00:06:38;;;;;;;0.20;0.20;;;;;;;;;;5094959;28;20440;-80
2021/11/04 00:09:03;;;;;;;0.20;0.20;;;;;;;;;;5096189;28;20111;-81
2021/11/04 00:11:29;;;;;;;0.30;0.30;;;;;;;;;;5095794;28;20078;-81
2021/11/04 00:13:54;;;;;;;0.40;0.40;;;;;;;;;;5094759;28;20032;-81
2021/11/04 00:16:20;;;;;;;0.00;0.00;;;;;;;;;;5096039;28;20012;-81
2021/11/04 00:18:45;;;;;;;0.05;0.05;;;;;;;;;;5095975;28;20070;-80
2021/11/04 00:21:10;;;;;;;0.10;0.10;;;;;;;;;;5094522;28;20040;-81
2021/11/04 00:23:35;;;;;;;0.10;0.10;;;;;;;;;;5095886;28;20023;-80
2021/11/04 00:26:01;;;;;;;0.00;0.00;;;;;;;;;;5095852;28;20540;-80
2021/11/04 00:28:26;;;;;;;0.75;0.73;;;;;;;;;;5094579;28;20058;-81
2021/11/04 00:30:52;;;;;;;0.90;0.85;;;;;;;;;;5095795;28;20012;-81
2021/11/04 00:33:17;;;;;;;0.45;0.45;;;;;;;;;;5095415;28;20058;-81
2021/11/04 00:35:42;;;;;;;0.00;0.00;;;;;;;;;;5095483;28;20050;-81
2021/11/04 00:38:08;;;;;;;0.95;0.75;;;;;;;;;;5095675;28;20093;-81
2021/11/04 00:40:34;;;;;;;0.20;0.20;;;;;;;;;;5095526;28;20482;-81
2021/11/04 00:42:59;;;;;;;0.10;0.10;;;;;;;;;;5095343;28;20043;-81
2021/11/04 00:45:24;;;;;;;0.10;0.10;;;;;;;;;;5095425;28;20100;-81
2021/11/04 00:47:50;;;;;;;0.13;0.13;;;;;;;;;;5095347;28;20039;-81
2021/11/04 00:50:16;;;;;;;0.10;0.10;;;;;;;;;;5095457;28;20078;-81
2021/11/04 00:52:41;;;;;;;0.10;0.10;;;;;;;;;;5095282;28;20100;-81
2021/11/04 00:55:07;;;;;;;1.55;1.27;;;;;;;;;;5095404;28;20085;-81
2021/11/04 00:57:32;;;;;;;0.10;0.10;;;;;;;;;;5095207;28;20039;-80
2021/11/04 00:59:58;;;;;;;0.10;0.10;;;;;;;;;;5095226;28;20012;-80
2021/11/04 01:02:23;;;;;;;3.05;0.47;;;;;;;;;;5095054;28;20040;-81
2021/11/04 01:04:48;;;;;;;0.10;0.10;;;;;;;;;;5094739;28;20036;-80
2021/11/04 01:07:14;;;;;;;0.10;0.10;;;;;;;;;;5093897;28;20027;-81
2021/11/04 01:09:39;;;;;;;0.13;0.13;;;;;;;;;;5094964;28;20407;-81
2021/11/04 01:12:05;;;;;;;0.95;0.52;;;;;;;;;;5094801;28;20441;-81
2021/11/04 01:14:30;;;;;;;0.10;0.10;;;;;;;;;;5094516;28;20020;-81
2021/11/04 01:16:55;;;;;;;0.10;0.10;;;;;;;;;;5094925;28;20103;-81
2021/11/04 01:19:21;;;;;;;0.90;0.90;;;;;;;;;;5094107;28;20059;-81
2021/11/04 01:21:46;;;;;;;0.10;0.10;;;;;;;;;;5094668;28;20368;-81
2021/11/04 01:24:11;;;;;;;0.10;0.10;;;;;;;;;;5094686;28;20035;-81
2021/11/04 01:26:37;;;;;;;0.10;0.10;;;;;;;;;;5094697;28;20068;-81
2021/11/04 01:29:02;;;;;;;0.10;0.10;;;;;;;;;;5094311;28;20076;-81
2021/11/04 01:31:27;;;;;;;0.10;0.10;;;;;;;;;;5094532;28;20036;-80
2021/11/04 01:33:53;;;;;;;0.63;0.63;;;;;;;;;;5094134;28;20477;-81
2021/11/04 01:36:18;;;;;;;0.10;0.10;;;;;;;;;;5094759;28;20126;-81
2021/11/04 01:38:44;;;;;;;0.10;0.10;;;;;;;;;;5093142;28;20028;-81
2021/11/04 01:41:09;;;;;;;0.25;0.25;;;;;;;;;;5094377;28;20483;-81
2021/11/04 01:43:34;;;;;;;0.10;0.10;;;;;;;;;;5094378;28;20460;-81
2021/11/04 01:46:00;;;;;;;0.10;0.10;;;;;;;;;;5094338;28;20039;-80
2021/11/04 01:48:25;;;;;;;1.50;1.40;;;;;;;;;;5094256;28;20461;-81
2021/11/04 01:50:50;;;;;;;0.10;0.10;;;;;;;;;;5093928;28;20063;-80
2021/11/04 01:53:20;;;;;;;0.10;0.10;;;;;;;;;;5092867;28;20042;-81
2021/11/04 01:55:46;;;;;;;0.10;0.10;;;;;;;;;;5094185;28;20042;-81
2021/11/04 01:58:11;;;;;;;0.10;0.10;;;;;;;;;;5094095;28;20012;-81
2021/11/04 02:00:37;;;;;;;0.10;0.10;;;;;;;;;;5093748;28;20032;-81
2021/11/04 02:03:17;;;;;;;0.17;0.17;;;;;;;;;;5093985;28;20039;-80
2021/11/04 02:05:51;;;;;;;0.10;0.10;;;;;;;;;;5093921;28;20024;-81
2021/11/04 02:08:37;;;;;;;0.10;0.10;;;;;;;;;;5093934;28;20040;-81
2021/11/04 02:11:09;;;;;;;0.10;0.10;;;;;;;;;;5082283;28;20452;-80
2021/11/04 02:13:54;;;;;;;0.10;0.10;;;;;;;;;;5093919;28;20089;-81
2021/11/04 02:16:22;;;;;;;0.10;0.10;;;;;;;;;;5093179;28;20067;-81
2021/11/04 02:18:48;;;;;;;0.10;0.10;;;;;;;;;;5093142;28;20557;-80
2021/11/04 02:21:16;;;;;;;0.10;0.10;;;;;;;;;;5093712;28;20048;-81
2021/11/04 02:23:45;;;;;;;4.35;0.45;;;;;;;;;;5093746;28;20036;-81
2021/11/04 02:26:11;;;;;;;0.15;0.15;;;;;;;;;;5093665;28;20071;-81
2021/11/04 02:28:37;;;;;;;0.10;0.10;;;;;;;;;;5093708;28;20480;-80
2021/11/04 02:31:03;;;;;;;0.10;0.10;;;;;;;;;;5093679;28;20024;-80
2021/11/04 02:33:29;;;;;;;0.10;0.10;;;;;;;;;;5093669;28;20043;-80
2021/11/04 02:35:55;;;;;;;0.10;0.10;;;;;;;;;;5093277;28;20043;-80
2021/11/04 02:38:22;;;;;;;0.10;0.10;;;;;;;;;;5093674;28;20024;-80
2021/11/04 02:40:48;;;;;;;0.10;0.10;;;;;;;;;;5093040;28;20407;-80
2021/11/04 02:43:14;;;;;;;0.10;0.10;;;;;;;;;;5093580;28;20024;-80
2021/11/04 02:45:40;;;;;;;0.10;0.10;;;;;;;;;;5093113;28;20024;-81
2021/11/04 02:48:06;;;;;;;0.10;0.10;;;;;;;;;;5093634;28;20111;-80
2021/11/04 02:50:31;;;;;;;0.10;0.10;;;;;;;;;;5093342;28;20016;-80
2021/11/04 02:52:56;;;;;;;0.10;0.10;;;;;;;;;;5093463;28;20155;-80
2021/11/04 02:55:30;;;;;;;0.10;0.10;;;;;;;;;;5093347;28;20040;-80
2021/11/04 02:57:56;;;;;;;0.10;0.10;;;;;;;;;;5093297;28;20020;-80
2021/11/04 03:00:21;;;;;;;0.10;0.10;;;;;;;;;;5093419;28;20028;-80
2021/11/04 03:02:46;;;;;;;0.10;0.10;;;;;;;;;;5093097;28;20373;-80
2021/11/04 03:05:12;;;;;;;0.10;0.10;;;;;;;;;;5091745;28;20057;-80
2021/11/04 03:07:37;;;;;;;0.30;0.30;;;;;;;;;;5093258;28;20170;-80
2021/11/04 03:10:03;;;;;;;0.10;0.10;;;;;;;;;;5093505;28;20368;-80
2021/11/04 03:12:28;;;;;;;0.10;0.10;;;;;;;;;;5093506;28;20467;-80
2021/11/04 03:14:54;;;;;;;0.10;0.10;;;;;;;;;;5092865;28;20115;-80
2021/11/04 03:17:19;;;;;;;0.10;0.10;;;;;;;;;;5093225;28;20022;-80
2021/11/04 03:19:45;;;;;;;0.10;0.10;;;;;;;;;;5092857;28;20043;-81
2021/11/04 03:22:11;;;;;;;0.10;0.10;;;;;;;;;;5093007;28;20044;-81
2021/11/04 03:24:36;;;;;;;0.10;0.10;;;;;;;;;;5093152;28;20416;-80
2021/11/04 03:27:03;;;;;;;0.10;0.10;;;;;;;;;;5091823;28;20069;-80
2021/11/04 03:29:32;;;;;;;0.30;0.30;;;;;;;;;;5093087;28;20119;-80
2021/11/04 03:31:58;;;;;;;0.10;0.10;;;;;;;;;;5095378;28;20016;-80
2021/11/04 03:34:24;;;;;;;0.10;0.10;;;;;;;;;;5096837;28;20024;-80
2021/11/04 03:36:50;;;;;;;0.10;0.10;;;;;;;;;;5096502;28;20608;-80
2021/11/04 03:39:19;;;;;;;0.10;0.10;;;;;;;;;;5096838;28;20019;-80
2021/11/04 03:41:46;;;;;;;0.10;0.10;;;;;;;;;;5096720;28;20122;-80
2021/11/04 03:44:12;;;;;;;0.43;0.43;;;;;;;;;;5096744;28;20361;-80
2021/11/04 03:46:37;;;;;;;0.10;0.10;;;;;;;;;;5096277;28;20027;-80
2021/11/04 03:49:02;;;;;;;0.10;0.10;;;;;;;;;;5096715;28;20122;-80
2021/11/04 03:51:30;;;;;;;0.10;0.10;;;;;;;;;;5095200;28;20070;-80
2021/11/04 03:53:55;;;;;;;0.10;0.10;;;;;;;;;;5096581;28;20024;-80
2021/11/04 03:56:21;;;;;;;0.40;0.40;;;;;;;;;;5096640;28;20027;-80
2021/11/04 03:58:46;;;;;;;0.10;0.10;;;;;;;;;;5096064;28;20032;-80
2021/11/04 04:01:12;;;;;;;0.10;0.10;;;;;;;;;;5096423;28;20016;-80
2021/11/04 04:03:37;;;;;;;0.10;0.10;;;;;;;;;;5096104;28;20482;-80
2021/11/04 04:06:02;;;;;;;0.10;0.10;;;;;;;;;;5096327;28;20067;-80
2021/11/04 04:08:29;;;;;;;0.10;0.10;;;;;;;;;;5096303;28;20039;-79
2021/11/04 04:10:54;;;;;;;0.10;0.10;;;;;;;;;;5096254;28;20047;-80
2021/11/04 04:13:19;;;;;;;0.10;0.10;;;;;;;;;;5096225;28;20467;-80
2021/11/04 04:15:45;;;;;;;0.10;0.10;;;;;;;;;;5096104;28;20459;-80
2021/11/04 04:18:10;;;;;;;0.10;0.10;;;;;;;;;;5095864;28;20103;-80
2021/11/04 04:20:35;;;;;;;0.10;0.10;;;;;;;;;;5095985;28;20028;-80
2021/11/04 04:23:00;;;;;;;0.10;0.10;;;;;;;;;;5095944;28;20028;-80
2021/11/04 04:25:26;;;;;;;0.10;0.10;;;;;;;;;;5096052;28;20023;-80
2021/11/04 04:27:51;;;;;;;0.10;0.10;;;;;;;;;;5095811;28;20032;-80
2021/11/04 04:30:16;;;;;;;0.10;0.10;;;;;;;;;;5095092;28;20103;-80
2021/11/04 04:32:42;;;;;;;0.10;0.10;;;;;;;;;;5095787;28;20012;-80
2021/11/04 04:35:07;;;;;;;0.20;0.20;;;;;;;;;;5095707;28;20131;-80
2021/11/04 04:37:33;;;;;;;0.10;0.10;;;;;;;;;;5095982;28;20505;-80
2021/11/04 04:39:58;;;;;;;0.10;0.10;;;;;;;;;;5094518;28;20020;-80
2021/11/04 04:42:23;;;;;;;0.10;0.10;;;;;;;;;;5094812;28;20469;-80
2021/11/04 04:44:51;;;;;;;0.10;0.10;;;;;;;;;;5095203;28;20008;-80
2021/11/04 04:47:16;;;;;;;2.45;1.08;;;;;;;;;;5095584;28;20108;-80
2021/11/04 04:49:41;;;;;;;0.10;0.10;;;;;;;;;;5095380;28;20063;-80
2021/11/04 04:52:07;;;;;;;0.10;0.10;;;;;;;;;;5095463;28;20156;-80
2021/11/04 04:54:32;;;;;;;0.30;0.30;;;;;;;;;;5095379;28;20012;-80
2021/11/04 04:56:58;;;;;;;0.10;0.10;;;;;;;;;;5093836;28;20032;-80
2021/11/04 04:59:23;;;;;;;0.17;0.17;;;;;;;;;;5095224;28;20023;-80
2021/11/04 05:01:48;;;;;;;0.75;0.75;;;;;;;;;;5095251;28;20024;-80
2021/11/04 05:04:14;;;;;;;0.10;0.10;;;;;;;;;;5095204;28;20384;-81
2021/11/04 05:06:39;;;;;;;0.10;0.10;;;;;;;;;;5095218;28;20012;-80
2021/11/04 05:09:04;;;;;;;0.10;0.10;;;;;;;;;;5095128;28;20364;-80
2021/11/04 05:11:30;;;;;;;0.10;0.10;;;;;;;;;;5095002;28;20028;-80
2021/11/04 05:13:55;;;;;;;0.10;0.10;;;;;;;;;;5095199;28;20364;-80
2021/11/04 05:16:20;;;;;;;0.10;0.10;;;;;;;;;;5094963;28;20448;-80
2021/11/04 05:18:45;;;;;;;0.10;0.10;;;;;;;;;;5094896;28;20085;-79
2021/11/04 05:21:11;;;;;;;0.10;0.10;;;;;;;;;;5094777;28;20448;-79
2021/11/04 05:23:36;;;;;;;0.10;0.10;;;;;;;;;;5094754;28;20081;-80
2021/11/04 05:26:01;;;;;;;0.10;0.10;;;;;;;;;;5094773;28;20035;-80
2021/11/04 05:28:27;;;;;;;0.10;0.10;;;;;;;;;;5094973;28;20024;-79
2021/11/04 05:30:53;;;;;;;0.10;0.10;;;;;;;;;;5094549;28;20023;-80
2021/11/04 05:33:18;;;;;;;0.10;0.10;;;;;;;;;;5093309;28;20032;-80
2021/11/04 05:35:43;;;;;;;0.10;0.10;;;;;;;;;;5094591;28;20499;-80
2021/11/04 05:38:09;;;;;;;0.10;0.10;;;;;;;;;;5094577;28;20019;-80
2021/11/04 05:40:35;;;;;;;0.10;0.10;;;;;;;;;;5094047;28;20110;-80
2021/11/04 05:43:00;;;;;;;0.10;0.10;;;;;;;;;;5094380;28;20110;-80
2021/11/04 05:45:26;;;;;;;0.10;0.10;;;;;;;;;;5094311;28;20529;-80
2021/11/04 05:47:51;;;;;;;0.10;0.10;;;;;;;;;;5094329;28;20073;-80
2021/11/04 05:50:18;;;;;;;0.20;0.20;;;;;;;;;;5094332;28;20008;-80
2021/11/04 05:52:43;;;;;;;0.10;0.10;;;;;;;;;;5093659;28;20031;-80
2021/11/04 05:55:08;;;;;;;0.10;0.10;;;;;;;;;;5094171;28;20036;-80
2021/11/04 05:57:34;;;;;;;0.10;0.10;;;;;;;;;;5094131;28;20463;-80
2021/11/04 05:59:59;;;;;;;0.10;0.10;;;;;;;;;;5094224;28;20413;-79
2021/11/04 06:02:25;;;;;;;0.10;0.10;;;;;;;;;;5093997;28;20036;-80
2021/11/04 06:04:50;;;;;;;0.10;0.10;;;;;;;;;;5094041;28;20054;-80
2021/11/04 06:07:16;;;;;;;0.10;0.10;;;;;;;;;;5094154;28;20020;-80
2021/11/04 06:09:41;;;;;;;0.20;0.20;;;;;;;;;;5093992;28;20032;-80
2021/11/04 06:12:07;;;;;;;0.10;0.10;;;;;;;;;;5093922;28;20421;-80
2021/11/04 06:14:33;;;;;;;0.10;0.10;;;;;;;;;;5093903;28;20480;-80
2021/11/04 06:16:58;;;;;;;0.10;0.10;;;;;;;;;;5093883;28;20052;-80
2021/11/04 06:19:23;;;;;;;0.10;0.10;;;;;;;;;;5093481;28;20065;-80
2021/11/04 06:21:49;;;;;;;0.40;0.40;;;;;;;;;;5093445;28;20028;-80
2021/11/04 06:24:14;;;;;;;0.17;0.17;;;;;;;;;;5093885;28;20024;-79
2021/11/04 06:26:39;;;;;;;0.10;0.10;;;;;;;;;;5093893;28;20024;-80
2021/11/04 06:29:05;;;;;;;0.10;0.10;;;;;;;;;;5092846;28;20435;-80
2021/11/04 06:31:30;;;;;;;3.30;1.13;;;;;;;;;;5093324;28;20476;-79
2021/11/04 06:33:55;;;;;;;0.10;0.10;;;;;;;;;;5093567;28;20016;-80
2021/11/04 06:36:21;;;;;;;0.10;0.10;;;;;;;;;;5093704;28;20044;-79
2021/11/04 06:38:46;;;;;;;0.10;0.10;;;;;;;;;;5093487;28;20032;-80
2021/11/04 06:41:11;;;;;;;0.10;0.10;;;;;;;;;;5092126;28;20385;-80
2021/11/04 06:43:37;;;;;;;0.10;0.10;;;;;;;;;;5093556;28;20031;-80
2021/11/04 06:46:02;;;;;;;0.10;0.10;;;;;;;;;;5093516;28;20369;-79
2021/11/04 06:48:40;;;;;;;0.10;0.10;;;;;;;;;;5093460;28;20020;-79
2021/11/04 06:51:07;;;;;;;0.10;0.10;;;;;;;;;;5089422;28;20024;-80
2021/11/04 06:53:34;;;;;;;0.10;0.10;;;;;;;;;;5081803;28;20392;-79
2021/11/04 06:56:00;;;;;;;0.10;0.10;;;;;;;;;;5072904;28;20368;-79
2021/11/04 06:58:27;;;;;;;0.10;0.10;;;;;;;;;;5072812;28;20036;-79
2021/11/04 07:00:53;;;;;;;0.10;0.10;;;;;;;;;;5073158;28;20032;-78
2021/11/04 07:03:22;;;;;;;0.10;0.10;;;;;;;;;;5071978;28;20031;-79
2021/11/04 07:05:47;;;;;;;0.10;0.10;;;;;;;;;;5076822;28;20029;-80
2021/11/04 07:08:20;;;;;;;0.10;0.10;;;;;;;;;;5076840;28;20063;-79
2021/11/04 07:10:46;;;;;;;0.10;0.10;;;;;;;;;;5078075;28;20074;-79
2021/11/04 07:13:13;;;;;;;0.10;0.10;;;;;;;;;;5087679;28;20025;-80
2021/11/04 07:15:38;;;;;;;0.10;0.10;;;;;;;;;;5097180;28;20043;-79
2021/11/04 07:18:04;;;;;;;0.10;0.10;;;;;;;;;;5095955;28;20024;-79
2021/11/04 07:20:29;;;;;;;0.10;0.10;;;;;;;;;;5097116;28;20031;-79
2021/11/04 07:22:54;;;;;;;0.10;0.10;;;;;;;;;;5097070;28;20048;-79
2021/11/04 07:25:21;;;;;;;0.10;0.10;;;;;;;;;;5097070;28;20380;-79
2021/11/04 07:27:56;;;;;;;0.10;0.10;;;;;;;;;;5096604;28;20400;-79
2021/11/04 07:30:22;;;;;;;0.10;0.10;;;;;;;;;;5097000;28;20032;-80
2021/11/04 07:32:54;;;;;;;0.10;0.10;;;;;;;;;;5096772;28;20158;-79
2021/11/04 07:35:21;;;;;;;0.10;0.10;;;;;;;;;;5094437;28;20055;-79
2021/11/04 07:37:46;;;;;;;0.10;0.10;;;;;;;;;;5084742;28;20016;-80
2021/11/04 07:40:13;;;;;;;0.10;0.10;;;;;;;;;;5096398;28;20032;-80
2021/11/04 07:42:39;;;;;;;0.10;0.10;;;;;;;;;;5088199;28;20048;-79
2021/11/04 07:45:04;;;;;;;0.10;0.10;;;;;;;;;;5096499;28;20023;-79
2021/11/04 07:47:31;;;;;;;0.10;0.10;;;;;;;;;;5095092;28;20059;-80
2021/11/04 07:49:56;;;;;;;0.10;0.10;;;;;;;;;;5092105;28;20384;-80
2021/11/04 07:52:21;;;;;;;0.10;0.10;;;;;;;;;;5092860;28;20020;-80
2021/11/04 07:54:47;;;;;;;0.10;0.10;;;;;;;;;;5092565;28;20028;-80
2021/11/04 07:57:12;;;;;;;0.10;0.10;;;;;;;;;;5096060;28;20468;-80
2021/11/04 07:59:38;;;;;;;0.10;0.10;;;;;;;;;;5082468;28;20028;-80
2021/11/04 08:02:03;;;;;;;0.10;0.10;;;;;;;;;;5092974;28;20043;-80
2021/11/04 08:04:29;;;;;;;0.10;0.10;;;;;;;;;;5087715;28;20028;-80
2021/11/04 08:06:54;;;;;;;2.08;1.17;;;;;;;;;;5095425;28;20067;-80
2021/11/04 08:09:20;;;;;;;0.10;0.10;;;;;;;;;;5081600;28;20486;-79
2021/11/04 08:11:45;;;;;;;0.10;0.10;;;;;;;;;;5091839;28;20047;-81
2021/11/04 08:14:11;;;;;;;0.10;0.10;;;;;;;;;;5092324;28;20027;-80
2021/11/04 08:16:36;;;;;;;0.10;0.10;;;;;;;;;;5091829;28;20024;-80
2021/11/04 08:19:01;;;;;;;0.10;0.10;;;;;;;;;;5092730;28;20106;-80
2021/11/04 08:21:27;;;;;;;0.10;0.10;;;;;;;;;;5092347;28;20019;-83
2021/11/04 08:23:52;;;;;;;0.10;0.10;;;;;;;;;;5093031;28;20024;-80
2021/11/04 08:26:17;;;;;;;0.10;0.10;;;;;;;;;;5092405;28;20040;-81
2021/11/04 08:28:43;;;;;;;0.10;0.10;;;;;;;;;;5092318;28;20023;-81
2021/11/04 08:31:08;;;;;;;0.10;0.10;;;;;;;;;;5092542;28;20101;-81
2021/11/04 08:33:33;;;;;;;0.10;0.10;;;;;;;;;;5092092;28;20036;-83
2021/11/04 08:35:59;;;;;;;0.10;0.10;;;;;;;;;;5092824;28;20048;-82
2021/11/04 08:38:24;;;;;;;0.10;0.10;;;;;;;;;;5092008;28;20414;-82
2021/11/04 08:40:49;;;;;;;0.10;0.10;;;;;;;;;;5092552;28;20385;-82
2021/11/04 08:43:15;;;;;;;0.10;0.10;;;;;;;;;;5091793;28;20478;-81
2021/11/04 08:45:40;;;;;;;0.98;0.75;;;;;;;;;;5091639;28;20456;-83
2021/11/04 08:48:05;;;;;;;0.55;0.55;;;;;;;;;;5086542;28;20024;-82
2021/11/04 08:50:31;;;;;;;1.45;1.10;;;;;;;;;;5090665;28;20020;-82
2021/11/04 08:52:56;;;;;;;0.10;0.10;;;;;;;;;;5089791;28;20042;-83
2021/11/04 08:55:22;;;;;;;0.38;0.38;;;;;;;;;;5089249;28;20028;-85
2021/11/04 08:57:47;;;;;;;0.05;0.05;;;;;;;;;;5091227;28;20016;-81
2021/11/04 09:00:13;;;;;;;0.10;0.10;;;;;;;;;;5089038;28;20464;-83
2021/11/04 09:02:38;;;;;;;14.10;0.40;;;;;;;;;;5076230;28;20044;-81
2021/11/04 09:05:07;;;;;;;0.10;0.10;;;;;;;;;;5069757;28;20023;-81
2021/11/04 09:07:34;;;;;;;0.47;0.47;;;;;;;;;;5070444;28;20089;-81
2021/11/04 09:10:00;;;;;;;0.00;0.00;;;;;;;;;;5070504;28;20041;-81
2021/11/04 09:12:26;;;;;;;0.00;0.00;;;;;;;;;;5082014;28;20024;-81
2021/11/04 09:14:51;;;;;;;0.00;0.00;;;;;;;;;;5093150;28;20162;-81
2021/11/04 09:17:18;;;;;;;0.00;0.00;;;;;;;;;;5093960;28;20058;-80
2021/11/04 09:19:43;;;;;;;0.08;0.08;;;;;;;;;;5093185;28;20016;-81
2021/11/04 09:22:09;;;;;;;0.00;0.00;;;;;;;;;;5093146;28;21067;-81
2021/11/04 09:24:34;;;;;;;0.00;0.00;;;;;;;;;;5092942;28;20123;-81
2021/11/04 09:27:02;;;;;;;0.00;0.00;;;;;;;;;;5090024;28;20051;-81
2021/11/04 09:29:28;;;;;;;0.00;0.00;;;;;;;;;;5092610;28;20019;-81
2021/11/04 09:31:55;;;;;;;0.10;0.10;;;;;;;;;;5092988;28;20039;-81
2021/11/04 09:34:21;;;;;;;0.10;0.10;;;;;;;;;;5092545;28;20048;-80
2021/11/04 09:36:46;;;;;;;0.00;0.00;;;;;;;;;;5092903;28;20067;-81
2021/11/04 09:39:11;;;;;;;0.05;0.05;;;;;;;;;;5092836;28;20036;-80
2021/11/04 09:41:37;;;;;;;0.00;0.00;;;;;;;;;;5093294;28;20081;-80
2021/11/04 09:44:03;;;;;;;0.10;0.10;;;;;;;;;;5093519;28;20452;-80
2021/11/04 09:46:29;;;;;;;0.00;0.00;;;;;;;;;;5092544;28;20035;-80
2021/11/04 09:48:55;;;;;;;0.10;0.10;;;;;;;;;;5092693;28;20059;-80
2021/11/04 09:51:20;;;;;;;0.00;0.00;;;;;;;;;;5093023;28;20428;-80
2021/11/04 09:53:48;;;;;;;6.32;0.63;;;;;;;;;;5092091;28;20024;-80
2021/11/04 09:56:14;;;;;;;0.00;0.00;;;;;;;;;;5092541;28;20024;-80
2021/11/04 09:58:40;;;;;;;0.10;0.10;;;;;;;;;;5091423;28;20073;-79
2021/11/04 10:01:18;;;;;;;0.63;0.20;;;;;;;;;;5091784;28;20028;-80
2021/11/04 10:03:43;;;;;;;0.00;0.00;;;;;;;;;;5092170;28;20139;-79
2021/11/04 10:06:16;;;;;;;0.10;0.10;;;;;;;;;;5092481;28;20118;-80
2021/11/04 10:08:41;;;;;;;0.00;0.00;;;;;;;;;;5092481;28;20031;-79
2021/11/04 10:11:11;;;;;;;0.10;0.10;;;;;;;;;;5092791;28;20028;-79
2021/11/04 10:13:36;;;;;;;0.00;0.00;;;;;;;;;;5092917;28;20039;-80
2021/11/04 10:16:02;;;;;;;0.10;0.10;;;;;;;;;;5092114;28;20020;-79
2021/11/04 10:18:27;;;;;;;0.10;0.10;;;;;;;;;;5078111;28;20031;-79
2021/11/04 10:20:56;;;;;;;0.05;0.05;;;;;;;;;;5071143;28;20032;-79
2021/11/04 10:23:21;;;;;;;0.10;0.10;;;;;;;;;;5072264;28;20369;-79
2021/11/04 10:25:48;;;;;;;0.10;0.10;;;;;;;;;;5071316;28;20028;-80
2021/11/04 10:28:39;;;;;;;0.00;0.00;;;;;;;;;;5068559;28;20028;-80
2021/11/04 10:31:09;;;;;;;0.10;0.10;;;;;;;;;;5068212;28;20436;-80
2021/11/04 10:33:36;;;;;;;0.10;0.10;;;;;;;;;;5080857;28;20426;-80
2021/11/04 10:36:01;;;;;;;0.20;0.20;;;;;;;;;;5090323;28;20380;-80
2021/11/04 10:38:39;;;;;;;0.10;0.10;;;;;;;;;;5090091;28;20024;-80
2021/11/04 10:41:20;;;;;;;0.10;0.10;;;;;;;;;;5090810;28;20064;-80
2021/11/04 10:43:56;;;;;;;0.10;0.10;;;;;;;;;;5092185;28;20043;-79
2021/11/04 10:46:22;;;;;;;0.30;0.13;;;;;;;;;;5093578;28;20028;-80
2021/11/04 10:48:48;;;;;;;0.10;0.10;;;;;;;;;;5092886;28;20032;-79
2021/11/04 10:51:14;;;;;;;0.17;0.17;;;;;;;;;;5092544;28;20028;-80
2021/11/04 10:53:39;;;;;;;0.10;0.10;;;;;;;;;;5084536;28;20016;-80
2021/11/04 10:56:07;;;;;;;0.20;0.20;;;;;;;;;;5088826;28;20552;-80
2021/11/04 10:58:33;;;;;;;0.00;0.00;;;;;;;;;;5092315;28;20089;-80
2021/11/04 11:00:59;;;;;;;0.10;0.10;;;;;;;;;;5093025;28;20028;-80
2021/11/04 11:03:26;;;;;;;0.00;0.00;;;;;;;;;;5089087;28;20038;-79
2021/11/04 11:05:55;;;;;;;0.10;0.10;;;;;;;;;;5081765;28;20557;-80
2021/11/04 11:08:21;;;;;;;0.00;0.00;;;;;;;;;;5089469;28;20020;-79
2021/11/04 11:10:46;;;;;;;0.10;0.10;;;;;;;;;;5089064;28;20088;-80
2021/11/04 11:13:12;;;;;;;0.10;0.10;;;;;;;;;;5090001;28;20036;-80
2021/11/04 11:15:37;;;;;;;0.00;0.00;;;;;;;;;;5089154;28;20027;-80
2021/11/04 11:18:05;;;;;;;0.00;0.00;;;;;;;;;;5089876;28;20099;-80
2021/11/04 11:20:31;;;;;;;0.00;0.00;;;;;;;;;;5089791;28;20067;-80
2021/11/04 11:22:57;;;;;;;0.00;0.00;;;;;;;;;;5090007;28;20618;-80
2021/11/04 11:25:22;;;;;;;0.10;0.10;;;;;;;;;;5089283;28;20148;-80
2021/11/04 11:27:50;;;;;;;0.10;0.10;;;;;;;;;;5089711;28;20058;-80
2021/11/04 11:30:15;;;;;;;0.10;0.10;;;;;;;;;;5089765;28;20016;-80
2021/11/04 11:32:43;;;;;;;0.00;0.00;;;;;;;;;;5089706;28;20030;-80
2021/11/04 11:35:18;;;;;;;0.10;0.10;;;;;;;;;;5089462;28;20055;-80
2021/11/04 11:37:55;;;;;;;1.38;1.00;;;;;;;;;;5089577;28;20020;-80
2021/11/04 11:40:25;;;;;;;0.00;0.00;;;;;;;;;;5089886;28;20031;-80
2021/11/04 11:42:57;;;;;;;0.10;0.10;;;;;;;;;;5089229;28;20469;-80
2021/11/04 11:45:23;;;;;;;0.10;0.10;;;;;;;;;;5089942;28;20071;-80
2021/11/04 11:47:49;;;;;;;0.00;0.00;;;;;;;;;;5089930;28;20055;-80
2021/11/04 11:50:17;;;;;;;0.10;0.10;;;;;;;;;;5090218;28;20452;-80
2021/11/04 11:52:48;;;;;;;0.00;0.00;;;;;;;;;;5093393;28;20476;-80
2021/11/04 11:55:18;;;;;;;0.43;0.43;;;;;;;;;;5093934;28;20073;-80
2021/11/04 11:58:03;;;;;;;0.00;0.00;;;;;;;;;;5093041;28;20418;-80
2021/11/04 12:00:47;;;;;;;0.10;0.10;;;;;;;;;;5081077;28;20531;-80
2021/11/04 12:03:12;;;;;;;0.10;0.10;;;;;;;;;;5092994;28;20477;-80
2021/11/04 12:05:38;;;;;;;0.90;0.57;;;;;;;;;;5092793;28;20063;-80
2021/11/04 12:08:09;;;;;;;0.10;0.10;;;;;;;;;;5092538;28;20043;-80
2021/11/04 12:10:39;;;;;;;4.95;1.35;;;;;;;;;;5092721;28;20046;-80
2021/11/04 12:13:04;;;;;;;0.20;0.20;;;;;;;;;;5081679;28;20108;-80
2021/11/04 12:15:30;;;;;;;0.00;0.00;;;;;;;;;;5072498;28;20524;-80
2021/11/04 12:18:15;;;;;;;0.20;0.20;;;;;;;;;;5072987;28;20028;-80
2021/11/04 12:20:47;;;;;;;0.00;0.00;;;;;;;;;;5072020;28;20477;-80
2021/11/04 12:23:13;;;;;;;0.10;0.10;;;;;;;;;;5072730;28;20040;-80
2021/11/04 12:25:40;;;;;;;0.30;0.30;;;;;;;;;;5071707;28;20036;-80
2021/11/04 12:28:05;;;;;;;0.03;0.03;;;;;;;;;;5072582;28;20028;-80
2021/11/04 12:30:30;;;;;;;0.10;0.10;;;;;;;;;;5088241;28;20028;-80
2021/11/04 12:33:09;;;;;;;0.10;0.10;;;;;;;;;;5080856;28;20118;-80
2021/11/04 12:35:48;;;;;;;0.00;0.00;;;;;;;;;;5081217;28;20052;-80
2021/11/04 12:38:15;;;;;;;0.08;0.08;;;;;;;;;;5071153;28;20477;-80
2021/11/04 12:40:40;;;;;;;0.10;0.10;;;;;;;;;;5071702;28;20039;-82
2021/11/04 12:43:12;;;;;;;0.10;0.10;;;;;;;;;;5087969;28;20392;-80
2021/11/04 12:45:44;;;;;;;0.10;0.10;;;;;;;;;;5092468;28;20085;-80
2021/11/04 12:48:10;;;;;;;0.00;0.00;;;;;;;;;;5092050;28;20130;-80
2021/11/04 12:50:37;;;;;;;0.00;0.00;;;;;;;;;;5090903;28;20137;-80
2021/11/04 12:53:09;;;;;;;0.10;0.10;;;;;;;;;;5090830;28;20102;-80
2021/11/04 12:55:34;;;;;;;0.00;0.00;;;;;;;;;;5092111;28;20024;-80
2021/11/04 12:58:07;;;;;;;0.10;0.10;;;;;;;;;;5091898;28;20380;-80
2021/11/04 13:00:36;;;;;;;0.00;0.00;;;;;;;;;;5091613;28;20016;-80
2021/11/04 13:03:03;;;;;;;0.00;0.00;;;;;;;;;;5078756;28;20044;-80
2021/11/04 13:05:28;;;;;;;0.45;0.40;;;;;;;;;;5090922;28;20423;-81
2021/11/04 13:07:57;;;;;;;0.10;0.10;;;;;;;;;;5091114;28;20069;-81
2021/11/04 13:10:26;;;;;;;0.00;0.00;;;;;;;;;;5092008;28;20114;-81
2021/11/04 13:12:53;;;;;;;0.00;0.00;;;;;;;;;;5091979;28;20084;-80
2021/11/04 13:15:23;;;;;;;0.00;0.00;;;;;;;;;;5083774;28;20480;-80
2021/11/04 13:17:53;;;;;;;0.00;0.00;;;;;;;;;;5070639;28;20393;-80
2021/11/04 13:20:26;;;;;;;0.00;0.00;;;;;;;;;;5074144;28;20041;-80
2021/11/04 13:22:53;;;;;;;0.00;0.00;;;;;;;;;;5084550;28;20048;-81
2021/11/04 13:25:23;;;;;;;0.10;0.10;;;;;;;;;;5066428;28;20047;-80
2021/11/04 13:28:03;;;;;;;0.10;0.10;;;;;;;;;;5069092;28;20389;-80
2021/11/04 13:30:33;;;;;;;0.10;0.10;;;;;;;;;;5069783;28;20090;-80
2021/11/04 13:32:58;;;;;;;0.10;0.10;;;;;;;;;;5070683;28;20173;-80
2021/11/04 13:35:31;;;;;;;0.00;0.00;;;;;;;;;;5069641;28;20140;-80
2021/11/04 13:38:13;;;;;;;0.50;0.50;;;;;;;;;;5079332;28;20032;-81
2021/11/04 13:40:41;;;;;;;0.28;0.28;;;;;;;;;;5080683;28;20063;-81
2021/11/04 13:43:07;;;;;;;1.20;1.10;;;;;;;;;;5090757;28;20513;-80
2021/11/04 13:45:32;;;;;;;0.00;0.00;;;;;;;;;;5089796;28;20107;-80
2021/11/04 13:48:01;;;;;;;0.10;0.10;;;;;;;;;;5088874;28;20028;-80
2021/11/04 13:50:40;;;;;;;0.15;0.15;;;;;;;;;;5090481;28;20540;-80
2021/11/04 13:53:21;;;;;;;0.10;0.10;;;;;;;;;;5090353;28;20118;-80
2021/11/04 13:55:47;;;;;;;0.00;0.00;;;;;;;;;;5089237;28;20762;-81
2021/11/04 13:58:13;;;;;;;0.10;0.10;;;;;;;;;;5090925;28;20363;-80
2021/11/04 14:00:39;;;;;;;0.00;0.00;;;;;;;;;;5090078;28;20028;-80
2021/11/04 14:03:05;;;;;;;0.10;0.10;;;;;;;;;;5090451;28;20044;-81
2021/11/04 14:05:49;;;;;;;0.00;0.00;;;;;;;;;;5090283;28;20039;-80
2021/11/04 14:08:15;;;;;;;0.30;0.30;;;;;;;;;;5090026;28;20031;-80
2021/11/04 14:10:40;;;;;;;0.00;0.00;;;;;;;;;;5089904;28;20081;-80
2021/11/04 14:13:06;;;;;;;0.00;0.00;;;;;;;;;;5090329;28;20419;-80
2021/11/04 14:15:37;;;;;;;0.22;0.22;;;;;;;;;;5089377;28;20028;-80
2021/11/04 14:18:03;;;;;;;0.00;0.00;;;;;;;;;;5088864;28;20074;-82
2021/11/04 14:20:30;;;;;;;0.00;0.00;;;;;;;;;;5062494;28;20017;-81
2021/11/04 14:22:56;;;;;;;0.68;0.68;;;;;;;;;;5084411;28;20055;-81
2021/11/04 14:25:21;;;;;;;0.05;0.05;;;;;;;;;;5088325;28;20032;-80
2021/11/04 14:27:54;;;;;;;0.03;0.03;;;;;;;;;;5089147;28;20099;-80
2021/11/04 14:30:20;;;;;;;0.25;0.25;;;;;;;;;;5087985;28;20071;-80
2021/11/04 14:32:47;;;;;;;0.00;0.00;;;;;;;;;;5088946;28;20028;-80
2021/11/04 14:35:12;;;;;;;0.10;0.10;;;;;;;;;;5088844;28;20082;-80
2021/11/04 14:37:38;;;;;;;0.10;0.10;;;;;;;;;;5088826;28;20416;-80
2021/11/04 14:40:03;;;;;;;0.10;0.10;;;;;;;;;;5088248;28;20032;-80
2021/11/04 14:42:31;;;;;;;0.10;0.10;;;;;;;;;;5089486;28;20043;-80